Time;durP1;ratioP1;P1;durP2;ratioP2;P2;SDS_P1;SDS_P2;PMS_P1;PMS_P2;Temp;Humidity;BMP_temperature;BMP_pressure;BME280_temperature;BME280_humidity;BME280_pressure;Samples;Min_cycle;Max_cycle;Signal;HPM_P1;HPM_P2
2022/12/14 00:02:15;;;;;;;;;21.25;21.25;;;;;;;;5027713;28;13679;-73
2022/12/14 00:04:41;;;;;;;;;19.67;19.00;;;;;;;;5027655;28;14394;-72
2022/12/14 00:07:06;;;;;;;;;18.33;18.00;;;;;;;;5027447;28;13563;-72
2022/12/14 00:09:31;;;;;;;;;21.00;18.00;;;;;;;;5027545;28;13629;-71
2022/12/14 00:11:56;;;;;;;;;23.00;23.00;;;;;;;;5027870;28;13753;-72
2022/12/14 00:14:22;;;;;;;;;24.00;21.00;;;;;;;;5027478;28;14553;-72
2022/12/14 00:16:47;;;;;;;;;26.00;21.00;;;;;;;;5025962;28;13540;-72
2022/12/14 00:19:12;;;;;;;;;23.67;21.67;;;;;;;;5027346;28;13556;-72
2022/12/14 00:21:38;;;;;;;;;28.00;24.67;;;;;;;;5027316;28;13506;-72
2022/12/14 00:24:03;;;;;;;;;31.67;25.00;;;;;;;;5027323;28;13712;-72
2022/12/14 00:26:30;;;;;;;;;27.25;25.25;;;;;;;;5027337;28;13644;-72
2022/12/14 00:28:55;;;;;;;;;28.00;28.00;;;;;;;;5027146;28;13563;-72
2022/12/14 00:31:21;;;;;;;;;27.00;24.00;;;;;;;;5029111;23;14460;-72
2022/12/14 00:33:46;;;;;;;;;27.60;25.60;;;;;;;;5004863;28;13573;-73
2022/12/14 00:36:12;;;;;;;;;23.25;21.00;;;;;;;;5004557;28;13599;-71
2022/12/14 00:38:37;;;;;;;;;23.00;21.00;;;;;;;;5006061;28;13556;-73
2022/12/14 00:41:03;;;;;;;;;21.50;20.00;;;;;;;;5005893;28;13640;-73
2022/12/14 00:43:28;;;;;;;;;20.75;19.25;;;;;;;;4994504;28;13554;-73
2022/12/14 00:45:53;;;;;;;;;20.40;19.40;;;;;;;;4988911;28;13574;-73
2022/12/14 00:48:20;;;;;;;;;20.25;19.00;;;;;;;;4994010;28;14377;-74
2022/12/14 00:50:45;;;;;;;;;20.20;19.40;;;;;;;;4995432;28;13644;-72
2022/12/14 00:53:11;;;;;;;;;24.00;21.20;;;;;;;;5001136;28;13789;-74
2022/12/14 00:55:38;;;;;;;;;26.00;23.00;;;;;;;;5006223;28;13585;-72
2022/12/14 00:58:03;;;;;;;;;22.80;20.00;;;;;;;;5006046;28;13557;-72
2022/12/14 01:00:28;;;;;;;;;21.50;19.75;;;;;;;;5006229;28;13583;-74
2022/12/14 01:02:53;;;;;;;;;23.00;21.33;;;;;;;;5005726;28;13553;-74
2022/12/14 01:05:19;;;;;;;;;31.67;28.33;;;;;;;;5005945;28;13566;-74
2022/12/14 01:07:44;;;;;;;;;30.00;26.50;;;;;;;;5005862;28;13588;-76
2022/12/14 01:10:09;;;;;;;;;27.25;23.50;;;;;;;;5006023;28;13534;-75
2022/12/14 01:12:34;;;;;;;;;26.00;25.00;;;;;;;;5006110;28;13566;-74
2022/12/14 01:15:00;;;;;;;;;32.00;30.00;;;;;;;;5005701;28;13545;-74
2022/12/14 01:17:25;;;;;;;;;35.50;28.50;;;;;;;;5005806;28;13570;-74
2022/12/14 01:19:50;;;;;;;;;27.67;25.33;;;;;;;;5004500;28;13714;-74
2022/12/14 01:22:15;;;;;;;;;29.67;26.00;;;;;;;;5005760;28;13585;-74
2022/12/14 01:24:42;;;;;;;;;35.00;29.75;;;;;;;;5006055;28;13578;-73
2022/12/14 01:27:08;;;;;;;;;26.00;25.00;;;;;;;;5005898;28;13714;-73
2022/12/14 01:29:33;;;;;;;;;27.33;25.67;;;;;;;;5006087;28;13569;-74
2022/12/14 01:31:58;;;;;;;;;29.75;25.75;;;;;;;;5005975;28;13612;-74
2022/12/14 01:34:24;;;;;;;;;31.25;27.00;;;;;;;;5004414;28;13735;-73
2022/12/14 01:36:49;;;;;;;;;31.00;26.00;;;;;;;;5004263;28;13705;-74
2022/12/14 01:39:15;;;;;;;;;29.25;25.00;;;;;;;;5004172;28;13737;-74
2022/12/14 01:41:41;;;;;;;;;27.00;26.00;;;;;;;;5005658;28;13601;-74
2022/12/14 01:44:07;;;;;;;;;26.00;24.20;;;;;;;;4991573;28;13685;-74
2022/12/14 01:46:54;;;;;;;;;26.50;26.00;;;;;;;;4984630;28;13808;-74
2022/12/14 01:49:28;;;;;;;;;35.20;30.80;;;;;;;;4985970;28;13607;-73
2022/12/14 01:51:56;;;;;;;;;26.00;24.00;;;;;;;;4986285;28;13600;-74
2022/12/14 01:54:22;;;;;;;;;25.00;25.00;;;;;;;;4985953;28;13733;-73
2022/12/14 01:56:48;;;;;;;;;26.60;24.20;;;;;;;;4986106;28;13569;-73
2022/12/14 01:59:16;;;;;;;;;23.00;19.67;;;;;;;;4985834;28;14399;-73
2022/12/14 02:01:42;;;;;;;;;24.50;21.00;;;;;;;;4985879;28;13666;-73
2022/12/14 02:04:08;;;;;;;;;25.00;21.33;;;;;;;;4986211;28;13813;-73
2022/12/14 02:06:35;;;;;;;;;20.00;19.75;;;;;;;;4985720;28;13580;-73
2022/12/14 02:09:04;;;;;;;;;24.25;23.00;;;;;;;;4984562;28;14766;-73
2022/12/14 02:11:53;;;;;;;;;23.75;21.00;;;;;;;;4986009;28;13571;-73
2022/12/14 02:14:18;;;;;;;;;24.40;21.20;;;;;;;;4985887;28;13616;-74
2022/12/14 02:16:44;;;;;;;;;21.50;21.50;;;;;;;;4987104;28;13721;-75
2022/12/14 02:19:09;;;;;;;;;24.00;21.25;;;;;;;;4989726;28;13567;-74
2022/12/14 02:21:35;;;;;;;;;20.25;20.00;;;;;;;;4989759;28;14356;-74
2022/12/14 02:24:21;;;;;;;;;21.25;20.00;;;;;;;;4989579;28;13594;-74
2022/12/14 02:27:25;;;;;;;;;22.50;18.25;;;;;;;;4989255;28;13557;-75
2022/12/14 02:29:57;;;;;;;;;24.00;19.00;;;;;;;;4948091;28;14285;-74
2022/12/14 02:32:25;;;;;;;;;20.00;18.50;;;;;;;;4948156;28;13777;-74
2022/12/14 02:35:08;;;;;;;;;19.75;19.75;;;;;;;;4948135;28;13696;-75
2022/12/14 02:37:38;;;;;;;;;20.00;19.00;;;;;;;;4948093;28;14431;-74
2022/12/14 02:40:25;;;;;;;;;22.20;19.20;;;;;;;;4948013;28;14519;-73
2022/12/14 02:42:58;;;;;;;;;23.20;20.20;;;;;;;;4948016;28;13852;-73
2022/12/14 02:45:29;;;;;;;;;20.00;18.75;;;;;;;;4947822;28;13768;-73
2022/12/14 02:48:00;;;;;;;;;20.60;20.60;;;;;;;;4947863;28;13626;-74
2022/12/14 02:50:44;;;;;;;;;22.60;21.00;;;;;;;;4931708;28;13692;-74
2022/12/14 02:53:20;;;;;;;;;19.80;19.20;;;;;;;;4947708;28;13768;-73
2022/12/14 02:55:50;;;;;;;;;25.00;20.00;;;;;;;;4947781;28;13668;-73
2022/12/14 02:58:19;;;;;;;;;23.00;19.80;;;;;;;;4947777;28;13754;-72
2022/12/14 03:00:45;;;;;;;;;21.00;18.20;;;;;;;;4970596;28;13557;-73
2022/12/14 03:03:10;;;;;;;;;22.00;20.20;;;;;;;;4988857;28;13571;-74
2022/12/14 03:05:36;;;;;;;;;21.25;21.25;;;;;;;;4988729;28;13662;-72
2022/12/14 03:08:07;;;;;;;;;21.00;21.00;;;;;;;;4988793;28;13563;-73
2022/12/14 03:10:39;;;;;;;;;20.25;18.00;;;;;;;;4988502;28;13732;-74
2022/12/14 03:13:08;;;;;;;;;20.40;20.40;;;;;;;;4988920;28;14416;-72
2022/12/14 03:15:35;;;;;;;;;21.50;20.00;;;;;;;;4988599;28;14472;-72
2022/12/14 03:18:04;;;;;;;;;26.25;22.00;;;;;;;;4988886;28;13574;-73
2022/12/14 03:20:31;;;;;;;;;23.00;20.80;;;;;;;;4988661;28;13819;-73
2022/12/14 03:22:59;;;;;;;;;25.75;24.50;;;;;;;;4988520;28;13579;-73
2022/12/14 03:25:34;;;;;;;;;25.00;24.00;;;;;;;;4988315;28;13555;-73
2022/12/14 03:28:28;;;;;;;;;26.25;20.75;;;;;;;;4988402;28;13715;-72
2022/12/14 03:31:10;;;;;;;;;19.40;18.80;;;;;;;;4979463;28;14278;-74
2022/12/14 03:33:37;;;;;;;;;21.67;20.00;;;;;;;;4987121;28;13561;-74
2022/12/14 03:36:20;;;;;;;;;24.00;20.40;;;;;;;;4988146;28;13525;-74
2022/12/14 03:38:49;;;;;;;;;19.00;19.00;;;;;;;;4988316;28;13606;-73
2022/12/14 03:41:21;;;;;;;;;21.80;20.00;;;;;;;;4988451;28;13585;-73
2022/12/14 03:44:05;;;;;;;;;22.75;19.75;;;;;;;;4988892;28;13559;-73
2022/12/14 03:46:35;;;;;;;;;19.00;19.00;;;;;;;;4988044;28;13552;-73
2022/12/14 03:49:17;;;;;;;;;22.00;19.50;;;;;;;;4988291;28;14382;-73
2022/12/14 03:51:52;;;;;;;;;20.80;20.80;;;;;;;;4988087;28;13577;-74
2022/12/14 03:54:20;;;;;;;;;20.00;20.00;;;;;;;;4987635;28;14340;-74
2022/12/14 03:56:45;;;;;;;;;21.00;20.20;;;;;;;;4987821;28;13686;-74
2022/12/14 03:59:16;;;;;;;;;26.75;22.50;;;;;;;;4987899;28;13674;-74
2022/12/14 04:01:53;;;;;;;;;20.75;20.75;;;;;;;;4987683;28;13590;-72
2022/12/14 04:04:29;;;;;;;;;19.60;19.60;;;;;;;;4987580;28;13730;-72
2022/12/14 04:06:58;;;;;;;;;19.00;18.00;;;;;;;;4987434;28;14341;-74
2022/12/14 04:09:32;;;;;;;;;23.50;20.50;;;;;;;;4987180;28;13616;-73
2022/12/14 04:20:28;;;;;;;;;23.20;18.80;;;;;;;;5007010;28;13520;-73
2022/12/14 21:00:14;;;;;;;;;23.00;23.00;;;;;;;;5087353;27;13458;-73
2022/12/14 21:02:39;;;;;;;;;28.67;26.00;;;;;;;;5067030;28;8829;-74
2022/12/14 21:05:05;;;;;;;;;28.00;21.00;;;;;;;;5067228;28;8789;-75
2022/12/14 21:07:31;;;;;;;;;21.00;20.33;;;;;;;;5067875;28;9732;-75
2022/12/14 21:09:56;;;;;;;;;19.33;19.33;;;;;;;;5064931;28;8833;-74
2022/12/14 21:12:22;;;;;;;;;18.00;18.00;;;;;;;;5069959;28;11614;-75
2022/12/14 21:14:51;;;;;;;;;23.67;22.33;;;;;;;;5087529;28;8802;-75
2022/12/14 21:17:18;;;;;;;;;21.33;20.00;;;;;;;;5086249;28;8871;-74
2022/12/14 21:19:43;;;;;;;;;29.33;24.33;;;;;;;;5087427;28;11533;-74
2022/12/14 21:22:11;;;;;;;;;24.33;21.00;;;;;;;;5086040;28;11567;-76
2022/12/14 21:24:36;;;;;;;;;26.33;21.67;;;;;;;;5077732;28;9577;-75
2022/12/14 21:27:02;;;;;;;;;32.67;25.67;;;;;;;;5059801;28;11505;-75
2022/12/14 21:29:27;;;;;;;;;23.25;20.50;;;;;;;;5066458;28;8833;-76
2022/12/14 21:31:53;;;;;;;;;18.75;14.50;;;;;;;;5066338;28;8924;-76
2022/12/14 21:34:19;;;;;;;;;18.50;16.25;;;;;;;;5066937;28;8819;-76
2022/12/14 21:36:44;;;;;;;;;14.50;14.50;;;;;;;;5066630;28;8825;-76
2022/12/14 21:39:14;;;;;;;;;16.25;13.50;;;;;;;;5065294;28;11538;-76
2022/12/14 21:44:22;;;;;;;;;21.50;15.50;;;;;;;;5072636;28;12417;-75
2022/12/14 21:46:48;;;;;;;;;17.50;13.25;;;;;;;;5066421;28;11731;-75
2022/12/14 21:49:13;;;;;;;;;25.25;22.00;;;;;;;;5066438;28;8935;-76
2022/12/14 21:51:38;;;;;;;;;21.75;18.50;;;;;;;;5066607;28;8789;-74
2022/12/14 21:54:04;;;;;;;;;20.50;20.00;;;;;;;;5066655;28;8821;-73
2022/12/14 21:59:16;;;;;;;;;17.00;15.00;;;;;;;;5006653;28;8967;-72
2022/12/14 22:01:41;;;;;;;;;11.50;11.50;;;;;;;;5005164;28;12308;-72
2022/12/14 22:04:06;;;;;;;;;14.75;13.25;;;;;;;;5006248;28;11567;-73
2022/12/14 22:06:32;;;;;;;;;17.50;14.00;;;;;;;;5006155;28;8837;-72
2022/12/14 22:08:58;;;;;;;;;16.75;15.00;;;;;;;;5006493;28;8829;-72
2022/12/14 22:11:23;;;;;;;;;20.75;16.25;;;;;;;;4984109;28;8925;-72
2022/12/14 22:13:48;;;;;;;;;16.50;15.00;;;;;;;;4984401;28;8885;-72
2022/12/14 22:16:14;;;;;;;;;19.00;16.50;;;;;;;;4972549;28;8949;-71
2022/12/14 22:18:39;;;;;;;;;18.50;16.50;;;;;;;;4972233;28;8835;-77
2022/12/14 22:21:04;;;;;;;;;18.00;15.00;;;;;;;;4971882;28;8885;-71
2022/12/14 22:23:30;;;;;;;;;16.50;12.25;;;;;;;;4972033;28;8820;-72
2022/12/14 22:25:55;;;;;;;;;22.00;18.00;;;;;;;;4971980;28;8807;-73
2022/12/14 22:28:21;;;;;;;;;17.75;15.50;;;;;;;;4972050;28;8831;-73
2022/12/14 22:30:46;;;;;;;;;11.75;10.75;;;;;;;;4972592;28;8816;-73
2022/12/14 22:33:12;;;;;;;;;14.00;11.25;;;;;;;;4973846;28;8791;-73
2022/12/14 22:35:37;;;;;;;;;18.25;14.00;;;;;;;;4973951;28;8815;-72
2022/12/14 22:38:02;;;;;;;;;15.00;15.00;;;;;;;;4973864;28;8986;-73
2022/12/14 22:40:29;;;;;;;;;15.50;14.50;;;;;;;;4973665;28;8886;-72
2022/12/14 22:42:54;;;;;;;;;14.75;14.75;;;;;;;;4973719;28;8842;-73
2022/12/14 22:45:20;;;;;;;;;16.75;14.75;;;;;;;;4973574;28;11541;-73
2022/12/14 22:47:45;;;;;;;;;14.25;13.00;;;;;;;;4973429;28;8799;-73
2022/12/14 22:50:11;;;;;;;;;17.00;14.50;;;;;;;;4973854;28;8814;-73
2022/12/14 22:52:36;;;;;;;;;14.25;14.25;;;;;;;;4973507;28;8836;-73
2022/12/14 22:55:02;;;;;;;;;13.75;11.50;;;;;;;;4974003;28;8961;-72
2022/12/14 22:57:28;;;;;;;;;16.50;15.00;;;;;;;;4973620;28;8815;-73
2022/12/14 22:59:57;;;;;;;;;18.25;16.00;;;;;;;;4973358;28;8851;-73
2022/12/14 23:02:22;;;;;;;;;16.00;12.75;;;;;;;;4973305;28;8796;-73
2022/12/14 23:04:48;;;;;;;;;14.75;13.75;;;;;;;;4973180;28;11555;-73
2022/12/14 23:07:13;;;;;;;;;14.25;11.75;;;;;;;;4973344;28;8842;-73
